Time;durP1;ratioP1;P1;durP2;ratioP2;P2;SDS_P1;SDS_P2;PMS_P1;PMS_P2;Temp;Humidity;BMP_temperature;BMP_pressure;BME280_temperature;BME280_humidity;BME280_pressure;Samples;Min_cycle;Max_cycle;Signal;HPM_P1;HPM_P2
2023/11/15 00:00:11;;;;;;;7.45;3.08;;;10.30;99.90;;;;;;5050629;28;20386;-70
2023/11/15 00:02:37;;;;;;;0.80;0.50;;;9.70;99.90;;;;;;5051186;28;20377;-70
2023/11/15 00:05:03;;;;;;;0.93;0.60;;;9.30;99.90;;;;;;5051884;28;20424;-70
2023/11/15 00:07:32;;;;;;;0.80;0.50;;;9.10;99.90;;;;;;5052108;28;20397;-70
2023/11/15 00:09:58;;;;;;;0.80;0.60;;;9.10;99.90;;;;;;5052279;28;20393;-70
2023/11/15 00:12:24;;;;;;;1.10;0.60;;;9.20;99.90;;;;;;5052873;28;20392;-71
2023/11/15 00:14:51;;;;;;;0.80;0.50;;;9.10;99.90;;;;;;5052117;28;20437;-70
2023/11/15 00:17:17;;;;;;;0.80;0.50;;;9.20;99.90;;;;;;5049780;28;20443;-71
2023/11/15 00:19:45;;;;;;;0.80;0.60;;;9.40;99.90;;;;;;5050167;28;20424;-71
2023/11/15 00:22:17;;;;;;;5.70;0.52;;;9.50;99.90;;;;;;5050136;28;20474;-71
2023/11/15 00:24:43;;;;;;;4.60;0.70;;;9.60;99.90;;;;;;5050415;28;20381;-71
2023/11/15 00:27:11;;;;;;;1.30;0.80;;;9.60;99.90;;;;;;5050421;28;20388;-71
2023/11/15 00:29:37;;;;;;;0.80;0.68;;;9.70;99.90;;;;;;5050426;28;20386;-71
2023/11/15 00:32:03;;;;;;;2.30;1.00;;;9.70;99.90;;;;;;5050538;28;20394;-71
2023/11/15 00:34:28;;;;;;;1.05;0.80;;;9.90;99.90;;;;;;5050401;28;20405;-71
2023/11/15 00:36:54;;;;;;;1.00;0.90;;;10.00;99.90;;;;;;5050007;28;20393;-71
2023/11/15 00:39:20;;;;;;;0.90;0.80;;;10.20;99.90;;;;;;5050012;28;20377;-71
2023/11/15 00:41:45;;;;;;;2.90;1.10;;;10.30;99.90;;;;;;5049970;28;20378;-71
2023/11/15 00:44:11;;;;;;;3.05;1.27;;;10.30;99.90;;;;;;5050159;28;20384;-71
2023/11/15 00:46:39;;;;;;;3.20;1.30;;;10.40;99.90;;;;;;5050061;28;20381;-71
2023/11/15 00:49:05;;;;;;;5.10;1.40;;;10.40;99.90;;;;;;5050036;28;20381;-71
2023/11/15 00:51:30;;;;;;;0.90;0.70;;;10.40;99.90;;;;;;5048778;28;20488;-71
2023/11/15 00:53:56;;;;;;;1.10;0.90;;;10.40;99.90;;;;;;5049676;28;20384;-71
2023/11/15 00:56:22;;;;;;;4.20;1.00;;;10.40;99.90;;;;;;5050188;28;20427;-71
2023/11/15 00:58:47;;;;;;;1.37;1.00;;;10.40;99.90;;;;;;5050099;28;20385;-71
2023/11/15 01:01:13;;;;;;;2.10;0.90;;;10.40;99.90;;;;;;5050164;28;20749;-70
2023/11/15 01:03:45;;;;;;;1.50;0.90;;;10.30;99.90;;;;;;5049995;28;20381;-71
2023/11/15 01:06:11;;;;;;;0.80;0.60;;;10.30;99.90;;;;;;5050236;28;20531;-72
2023/11/15 01:08:37;;;;;;;1.05;0.95;;;10.30;99.90;;;;;;5050458;28;20828;-71
2023/11/15 01:11:06;;;;;;;1.20;1.10;;;10.30;99.90;;;;;;5050861;28;20644;-72
2023/11/15 01:13:35;;;;;;;11.10;1.30;;;10.30;99.90;;;;;;5051093;28;20751;-72
2023/11/15 01:16:01;;;;;;;11.68;1.42;;;10.30;99.90;;;;;;5049914;28;20982;-72
2023/11/15 01:18:26;;;;;;;8.50;1.10;;;10.30;99.90;;;;;;5054962;28;20381;-72
2023/11/15 01:20:52;;;;;;;0.97;0.87;;;10.40;99.90;;;;;;5062163;28;20521;-70
2023/11/15 01:23:19;;;;;;;0.80;0.70;;;10.30;99.90;;;;;;5065869;28;20389;-71
2023/11/15 01:25:44;;;;;;;1.10;0.80;;;10.40;99.90;;;;;;5065050;28;20421;-71
2023/11/15 01:28:10;;;;;;;1.30;1.10;;;10.40;99.90;;;;;;5056185;28;20393;-71
2023/11/15 01:30:35;;;;;;;1.50;0.70;;;10.40;99.90;;;;;;5052187;28;20751;-71
2023/11/15 01:33:01;;;;;;;1.90;1.50;;;10.40;99.90;;;;;;5054311;28;20903;-71
2023/11/15 01:35:27;;;;;;;1.17;1.08;;;10.40;99.90;;;;;;5053313;28;20807;-70
2023/11/15 01:37:53;;;;;;;1.20;1.10;;;10.50;99.90;;;;;;5054434;28;20406;-70
2023/11/15 01:40:23;;;;;;;5.65;1.70;;;10.40;99.90;;;;;;5054958;28;20382;-71
2023/11/15 01:42:49;;;;;;;1.50;1.00;;;10.50;99.90;;;;;;5068180;28;20447;-71
2023/11/15 01:45:16;;;;;;;2.25;1.15;;;10.50;99.90;;;;;;5070909;28;20381;-72
2023/11/15 01:47:42;;;;;;;3.97;1.98;;;10.50;99.90;;;;;;5071090;28;20393;-71
2023/11/15 01:50:13;;;;;;;2.40;1.20;;;10.50;99.90;;;;;;5060314;28;20395;-72
2023/11/15 01:52:41;;;;;;;2.20;1.33;;;10.50;99.90;;;;;;5061095;28;20388;-71
2023/11/15 01:55:12;;;;;;;1.40;0.70;;;10.50;99.90;;;;;;5051956;28;20407;-71
2023/11/15 01:57:37;;;;;;;1.90;1.40;;;10.50;99.90;;;;;;5053225;28;20410;-71
2023/11/15 02:00:09;;;;;;;0.80;0.70;;;10.50;99.90;;;;;;5052708;28;20911;-71
2023/11/15 02:02:36;;;;;;;1.75;1.10;;;10.50;99.90;;;;;;5052892;28;21067;-70
2023/11/15 02:05:01;;;;;;;2.90;1.00;;;10.50;99.90;;;;;;5052831;28;20391;-70
2023/11/15 02:07:27;;;;;;;1.20;0.80;;;10.60;99.90;;;;;;5059637;22;20948;-71
2023/11/15 02:09:52;;;;;;;1.35;0.80;;;10.60;99.90;;;;;;5032812;28;20434;-74
2023/11/15 02:12:19;;;;;;;1.10;1.00;;;10.60;99.90;;;;;;5033157;28;20379;-73
2023/11/15 02:14:45;;;;;;;0.95;0.85;;;10.60;99.90;;;;;;5032039;28;20927;-74
2023/11/15 02:17:10;;;;;;;1.10;0.73;;;10.60;99.90;;;;;;5033710;28;20391;-72
2023/11/15 02:19:37;;;;;;;1.47;0.90;;;10.60;99.90;;;;;;5033138;28;20432;-71
2023/11/15 02:22:03;;;;;;;3.38;1.40;;;10.60;99.90;;;;;;5032970;28;20391;-74
2023/11/15 02:24:29;;;;;;;0.80;0.60;;;10.70;99.90;;;;;;5033881;28;20753;-72
2023/11/15 02:26:55;;;;;;;1.10;0.60;;;10.60;99.90;;;;;;5032622;28;20528;-72
2023/11/15 02:29:21;;;;;;;1.40;1.20;;;10.60;99.90;;;;;;5032515;28;20437;-72
2023/11/15 02:31:46;;;;;;;4.20;0.80;;;10.60;99.90;;;;;;5032614;28;20394;-71
2023/11/15 02:34:12;;;;;;;2.10;1.00;;;10.60;99.90;;;;;;5032232;28;20403;-73
2023/11/15 02:36:37;;;;;;;1.37;1.17;;;10.70;99.90;;;;;;5031792;28;20417;-73
2023/11/15 02:39:03;;;;;;;7.70;1.00;;;10.70;99.90;;;;;;5032030;28;20385;-73
2023/11/15 02:41:28;;;;;;;2.20;0.80;;;10.70;99.90;;;;;;5031740;28;20446;-73
2023/11/15 02:43:55;;;;;;;2.20;0.80;;;10.60;99.90;;;;;;5032451;28;20411;-72
2023/11/15 02:46:22;;;;;;;0.90;0.70;;;10.60;99.90;;;;;;5032686;28;20387;-73
2023/11/15 02:48:51;;;;;;;1.35;0.80;;;10.60;99.90;;;;;;5032641;28;20943;-73
2023/11/15 02:51:17;;;;;;;1.40;1.15;;;10.70;99.90;;;;;;5031077;28;20422;-73
2023/11/15 02:53:43;;;;;;;8.30;1.20;;;10.60;99.90;;;;;;5032428;28;20410;-73
2023/11/15 02:56:09;;;;;;;7.90;0.80;;;10.60;99.90;;;;;;5032719;28;20389;-73
2023/11/15 02:58:35;;;;;;;1.00;0.60;;;10.50;99.90;;;;;;5035891;28;20458;-73
2023/11/15 03:01:04;;;;;;;6.20;0.90;;;10.60;99.90;;;;;;5036111;28;20418;-72
2023/11/15 03:03:30;;;;;;;1.83;1.13;;;10.60;99.90;;;;;;5036109;28;20463;-73
2023/11/15 03:05:56;;;;;;;1.20;0.80;;;10.60;99.90;;;;;;5036101;28;20762;-74
2023/11/15 03:08:22;;;;;;;0.90;0.70;;;10.60;99.90;;;;;;5034439;28;20394;-72
2023/11/15 03:10:47;;;;;;;1.20;1.10;;;10.70;99.90;;;;;;5031629;28;20391;-72
2023/11/15 03:13:13;;;;;;;1.60;1.00;;;10.70;99.90;;;;;;5032011;28;20749;-72
2023/11/15 03:15:38;;;;;;;1.70;0.90;;;10.70;99.90;;;;;;5031694;28;20501;-74
2023/11/15 03:18:04;;;;;;;2.50;0.80;;;10.70;99.90;;;;;;5031315;28;20383;-73
2023/11/15 03:20:32;;;;;;;1.90;1.00;;;10.70;99.90;;;;;;5031642;28;20379;-71
2023/11/15 03:22:58;;;;;;;0.90;0.60;;;10.70;99.90;;;;;;5031759;28;20387;-73
2023/11/15 03:25:23;;;;;;;0.80;0.70;;;10.70;99.90;;;;;;5031736;28;20394;-71
2023/11/15 03:27:50;;;;;;;3.90;0.95;;;10.70;99.90;;;;;;5031426;28;20502;-72
2023/11/15 03:30:16;;;;;;;1.50;0.90;;;10.70;99.90;;;;;;5031614;28;20445;-73
2023/11/15 03:32:44;;;;;;;3.70;1.00;;;10.70;99.90;;;;;;5031468;28;20753;-76
2023/11/15 03:35:09;;;;;;;0.80;0.57;;;10.70;99.90;;;;;;5031324;28;20490;-72
2023/11/15 03:37:36;;;;;;;3.80;1.10;;;10.70;99.90;;;;;;5031410;28;20905;-72
2023/11/15 03:40:02;;;;;;;1.50;0.90;;;10.70;99.90;;;;;;5031119;28;20980;-72
2023/11/15 03:42:28;;;;;;;5.38;0.98;;;10.70;99.90;;;;;;5031348;28;20387;-72
2023/11/15 03:44:54;;;;;;;1.08;0.98;;;10.70;99.90;;;;;;5031312;28;20707;-73
2023/11/15 03:47:20;;;;;;;1.20;0.88;;;10.70;99.90;;;;;;5031790;28;20379;-72
2023/11/15 03:49:45;;;;;;;1.10;0.60;;;10.70;99.90;;;;;;5030560;28;20399;-72
2023/11/15 03:52:11;;;;;;;8.60;1.20;;;10.70;99.90;;;;;;5030723;28;20375;-72
2023/11/15 03:54:37;;;;;;;1.10;0.80;;;10.70;99.90;;;;;;5031168;28;20398;-72
2023/11/15 03:57:06;;;;;;;4.00;1.10;;;10.60;99.90;;;;;;5031058;28;20383;-73
2023/11/15 03:59:31;;;;;;;3.10;1.30;;;10.70;99.90;;;;;;5030905;28;20474;-73
2023/11/15 04:01:57;;;;;;;2.20;1.20;;;10.70;99.90;;;;;;5029856;28;20422;-73
2023/11/15 04:04:23;;;;;;;0.90;0.70;;;10.70;99.90;;;;;;5031117;28;20804;-73
2023/11/15 04:06:48;;;;;;;0.85;0.60;;;10.70;99.90;;;;;;5030802;28;20866;-72
2023/11/15 04:09:14;;;;;;;0.80;0.50;;;10.70;99.90;;;;;;5030923;28;20395;-72
2023/11/15 04:11:40;;;;;;;0.80;0.70;;;10.70;99.90;;;;;;5031043;28;20445;-72
2023/11/15 04:14:06;;;;;;;1.83;0.90;;;10.80;99.90;;;;;;5029958;28;20924;-72
2023/11/15 04:16:32;;;;;;;1.30;0.80;;;10.70;99.90;;;;;;5031257;28;20445;-72
2023/11/15 04:18:58;;;;;;;1.40;1.00;;;10.70;99.90;;;;;;5029422;28;20391;-73
2023/11/15 04:21:25;;;;;;;1.30;0.90;;;10.70;99.90;;;;;;5030953;28;20387;-71
2023/11/15 04:23:52;;;;;;;2.30;1.20;;;10.70;99.90;;;;;;5030629;28;20382;-72
2023/11/15 04:26:19;;;;;;;0.80;0.60;;;10.70;99.90;;;;;;5031061;28;20445;-72
2023/11/15 04:28:44;;;;;;;0.80;0.50;;;10.80;99.90;;;;;;5030333;28;20444;-72
2023/11/15 04:31:10;;;;;;;0.80;0.50;;;10.70;99.90;;;;;;5029437;28;20465;-72
2023/11/15 04:33:35;;;;;;;0.90;0.60;;;10.80;99.90;;;;;;5030800;28;20394;-73
2023/11/15 04:36:01;;;;;;;1.10;1.00;;;10.70;99.90;;;;;;5030479;28;20498;-73
2023/11/15 04:38:27;;;;;;;1.00;0.80;;;10.70;99.90;;;;;;5030617;28;20378;-73
2023/11/15 04:40:52;;;;;;;1.40;0.90;;;10.80;99.90;;;;;;5031441;28;20861;-72
2023/11/15 04:43:18;;;;;;;0.90;0.70;;;10.80;99.90;;;;;;5032450;28;20386;-73
2023/11/15 04:45:44;;;;;;;2.45;0.68;;;10.80;99.90;;;;;;5032100;28;20418;-73
2023/11/15 04:48:09;;;;;;;0.82;0.52;;;10.80;99.00;;;;;;5031853;28;20394;-73
2023/11/15 04:50:36;;;;;;;2.90;1.10;;;10.70;99.90;;;;;;5031100;28;20383;-72
2023/11/15 04:53:02;;;;;;;2.50;1.00;;;10.70;99.90;;;;;;5030313;28;20397;-72
2023/11/15 04:55:28;;;;;;;0.80;0.50;;;10.60;99.90;;;;;;5030604;28;20406;-73
2023/11/15 04:57:53;;;;;;;1.00;0.70;;;10.60;99.90;;;;;;5028917;28;20941;-72
2023/11/15 05:00:19;;;;;;;2.00;0.70;;;10.70;99.90;;;;;;5030334;28;20375;-74
2023/11/15 05:02:45;;;;;;;1.80;1.20;;;10.70;99.90;;;;;;5030216;28;20383;-71
2023/11/15 05:05:10;;;;;;;0.80;0.60;;;10.70;99.90;;;;;;5033741;28;20861;-74
2023/11/15 05:07:38;;;;;;;0.80;0.60;;;10.80;99.90;;;;;;5033782;28;20421;-72
2023/11/15 05:10:04;;;;;;;1.42;0.80;;;10.80;97.10;;;;;;5033964;28;20405;-74
2023/11/15 05:12:31;;;;;;;1.23;0.65;;;10.80;99.90;;;;;;5033971;28;20414;-73
2023/11/15 05:14:57;;;;;;;0.80;0.70;;;10.70;99.90;;;;;;5033921;28;20432;-72
2023/11/15 05:17:22;;;;;;;2.00;0.80;;;10.80;99.90;;;;;;5034800;28;20740;-74
2023/11/15 05:19:48;;;;;;;1.10;0.68;;;10.70;99.90;;;;;;5034580;28;20379;-73
2023/11/15 05:22:14;;;;;;;1.10;0.70;;;10.70;97.10;;;;;;5034782;28;20399;-73
2023/11/15 05:24:39;;;;;;;0.90;0.50;;;10.70;97.90;;;;;;5033979;28;20394;-72
2023/11/15 05:27:05;;;;;;;4.50;0.70;;;10.80;97.10;;;;;;5035414;28;20414;-73
2023/11/15 05:29:31;;;;;;;1.30;1.20;;;10.80;93.90;;;;;;5036274;28;20693;-73
2023/11/15 05:31:57;;;;;;;0.80;0.68;;;10.80;96.20;;;;;;5036379;28;20413;-72
2023/11/15 05:34:22;;;;;;;0.80;0.70;;;10.80;94.90;;;;;;5032351;28;20415;-72
2023/11/15 05:36:48;;;;;;;0.80;0.50;;;10.80;96.00;;;;;;5033415;28;20885;-73
2023/11/15 05:39:14;;;;;;;1.30;0.93;;;10.80;93.20;;;;;;5031328;28;20383;-71
2023/11/15 05:41:39;;;;;;;4.77;0.73;;;10.80;94.60;;;;;;5029997;28;20407;-70
2023/11/15 05:44:05;;;;;;;1.20;0.73;;;10.80;98.30;;;;;;5034007;28;20379;-72
2023/11/15 05:46:33;;;;;;;0.90;0.80;;;10.80;97.40;;;;;;5033900;28;20390;-73
2023/11/15 05:48:59;;;;;;;1.60;0.80;;;10.80;99.10;;;;;;5037620;28;20482;-73
2023/11/15 05:51:25;;;;;;;0.85;0.52;;;10.80;95.00;;;;;;5048131;28;20387;-74
2023/11/15 05:53:51;;;;;;;1.20;0.80;;;10.80;99.00;;;;;;5046711;28;20421;-74
2023/11/15 05:56:17;;;;;;;1.88;1.17;;;10.70;99.70;;;;;;5040207;28;20927;-73
2023/11/15 05:58:42;;;;;;;1.50;0.60;;;10.60;94.10;;;;;;5033398;28;20384;-72
2023/11/15 06:01:08;;;;;;;0.90;0.50;;;10.60;94.50;;;;;;5030945;28;20459;-71
2023/11/15 06:03:34;;;;;;;0.90;0.50;;;10.50;95.00;;;;;;5013754;28;20392;-72
2023/11/15 06:05:59;;;;;;;1.52;0.77;;;10.50;99.20;;;;;;5015375;28;20416;-74
2023/11/15 06:08:25;;;;;;;3.13;0.65;;;10.50;99.90;;;;;;5029064;28;20418;-71
2023/11/15 06:10:50;;;;;;;1.40;1.10;;;10.50;99.90;;;;;;5030683;28;20394;-73
2023/11/15 06:13:16;;;;;;;0.80;0.50;;;10.50;99.90;;;;;;5030478;28;20391;-72
2023/11/15 06:15:44;;;;;;;0.90;0.70;;;10.50;99.90;;;;;;5028165;28;20938;-73
2023/11/15 06:18:12;;;;;;;11.07;0.70;;;10.60;99.90;;;;;;5029808;28;20486;-73
2023/11/15 06:20:40;;;;;;;0.90;0.70;;;10.60;99.90;;;;;;5030349;28;20387;-74
2023/11/15 06:23:07;;;;;;;2.08;1.10;;;10.60;99.90;;;;;;5032210;28;20742;-73
2023/11/15 06:25:34;;;;;;;0.80;0.60;;;10.70;99.90;;;;;;5026587;28;20452;-75
2023/11/15 06:28:00;;;;;;;0.80;0.60;;;10.70;99.90;;;;;;5010407;28;20421;-73
2023/11/15 06:30:25;;;;;;;8.90;0.90;;;10.60;99.90;;;;;;5021416;28;20419;-73
2023/11/15 06:32:51;;;;;;;9.40;1.20;;;10.70;99.90;;;;;;5030995;28;20469;-73
2023/11/15 06:35:19;;;;;;;0.90;0.70;;;10.70;99.90;;;;;;5030576;28;20418;-72
2023/11/15 06:37:48;;;;;;;0.82;0.65;;;10.70;99.90;;;;;;5028717;28;20746;-73
2023/11/15 06:40:18;;;;;;;11.00;1.50;;;10.70;99.90;;;;;;5029384;28;20568;-73
2023/11/15 06:42:44;;;;;;;1.80;1.30;;;10.70;99.90;;;;;;5017914;28;20385;-71
2023/11/15 06:45:10;;;;;;;2.72;0.85;;;10.70;99.90;;;;;;5026339;28;20403;-73
2023/11/15 06:47:36;;;;;;;7.28;0.73;;;10.70;99.90;;;;;;5008775;28;20401;-73
2023/11/15 06:50:05;;;;;;;1.50;1.40;;;10.70;99.90;;;;;;5017126;28;20453;-73
2023/11/15 06:52:37;;;;;;;0.80;0.50;;;10.60;99.90;;;;;;5029901;28;20472;-71
2023/11/15 06:55:10;;;;;;;16.00;0.98;;;10.60;99.90;;;;;;5028627;28;21007;-73
2023/11/15 06:57:37;;;;;;;1.20;0.60;;;10.60;99.90;;;;;;5029316;28;20387;-73
2023/11/15 07:00:05;;;;;;;7.00;1.40;;;10.70;99.90;;;;;;5027263;28;20488;-73
2023/11/15 07:02:31;;;;;;;2.80;1.10;;;10.60;99.90;;;;;;5029712;28;20410;-71
2023/11/15 07:04:57;;;;;;;1.07;0.73;;;10.70;99.90;;;;;;5030289;28;20394;-74
2023/11/15 07:07:22;;;;;;;1.70;1.20;;;10.70;99.90;;;;;;5019663;28;20766;-72
2023/11/15 07:09:48;;;;;;;1.70;0.70;;;10.70;99.90;;;;;;5030222;28;20391;-72
2023/11/15 07:12:13;;;;;;;4.85;1.40;;;10.60;99.90;;;;;;5021249;28;20412;-73
2023/11/15 07:14:40;;;;;;;1.67;0.90;;;10.70;99.90;;;;;;5017923;28;20415;-73
2023/11/15 07:17:07;;;;;;;2.60;1.15;;;10.70;99.90;;;;;;5034184;28;20418;-73
2023/11/15 07:19:33;;;;;;;2.10;0.90;;;10.70;99.00;;;;;;5026436;28;20467;-73
2023/11/15 07:21:58;;;;;;;3.90;1.20;;;10.70;99.90;;;;;;5013864;28;20389;-73
2023/11/15 07:24:25;;;;;;;1.30;0.90;;;10.70;99.90;;;;;;5030553;28;20541;-74
2023/11/15 07:26:51;;;;;;;1.63;0.85;;;10.60;99.90;;;;;;5029189;28;20762;-73
2023/11/15 07:29:21;;;;;;;0.90;0.80;;;10.60;99.90;;;;;;5028899;28;20387;-72
2023/11/15 07:31:53;;;;;;;1.43;0.90;;;10.60;99.90;;;;;;5028932;28;20386;-73
2023/11/15 07:34:22;;;;;;;2.40;1.00;;;10.60;99.90;;;;;;5028036;28;20561;-74
2023/11/15 07:36:48;;;;;;;2.65;0.80;;;10.70;99.90;;;;;;5029105;28;20391;-71
2023/11/15 07:39:13;;;;;;;1.20;1.10;;;10.80;99.90;;;;;;5028918;28;20512;-72
2023/11/15 07:41:39;;;;;;;1.70;0.70;;;10.80;99.90;;;;;;5028927;28;21043;-72
2023/11/15 07:44:05;;;;;;;0.90;0.70;;;10.90;99.40;;;;;;5028667;28;20387;-73
2023/11/15 07:46:31;;;;;;;12.97;1.30;;;10.90;94.90;;;;;;5028651;28;20445;-72
2023/11/15 07:48:58;;;;;;;1.23;0.87;;;10.90;93.10;;;;;;5029169;28;20390;-72
2023/11/15 07:51:24;;;;;;;1.83;0.85;;;10.90;89.20;;;;;;5029007;28;20406;-72
2023/11/15 07:53:50;;;;;;;7.60;1.45;;;10.90;89.80;;;;;;5022487;28;20840;-73
2023/11/15 07:56:19;;;;;;;3.70;0.90;;;11.00;85.60;;;;;;5018037;28;20513;-71
2023/11/15 07:58:45;;;;;;;10.80;1.20;;;11.00;85.50;;;;;;5026811;28;20395;-74
2023/11/15 08:01:11;;;;;;;1.00;0.60;;;10.90;89.70;;;;;;5026323;28;20390;-73
2023/11/15 08:03:37;;;;;;;2.60;1.10;;;11.00;86.80;;;;;;5026540;28;20857;-73
2023/11/15 08:06:03;;;;;;;1.10;0.90;;;11.00;87.50;;;;;;5029955;28;20395;-74
2023/11/15 08:08:29;;;;;;;0.80;0.60;;;11.10;83.60;;;;;;5038757;23;20445;-74
2023/11/15 08:10:54;;;;;;;0.80;0.55;;;11.10;82.40;;;;;;5028334;28;20379;-72
2023/11/15 08:13:20;;;;;;;0.80;0.70;;;11.10;86.70;;;;;;5028174;28;20398;-73
2023/11/15 08:15:49;;;;;;;2.20;0.80;;;11.20;81.20;;;;;;5028405;28;20423;-74
2023/11/15 08:18:15;;;;;;;1.40;0.70;;;11.30;81.90;;;;;;5023469;28;20393;-74
2023/11/15 08:20:45;;;;;;;1.40;0.73;;;11.30;79.40;;;;;;5009803;28;20385;-73
2023/11/15 08:23:11;;;;;;;7.60;0.90;;;11.40;75.40;;;;;;5010058;28;20377;-73
2023/11/15 08:25:41;;;;;;;5.80;0.57;;;11.30;76.10;;;;;;5009380;28;20471;-72
2023/11/15 08:28:07;;;;;;;1.20;0.70;;;11.30;78.10;;;;;;5009805;28;20407;-74
2023/11/15 08:30:33;;;;;;;16.80;1.30;;;11.40;76.60;;;;;;5009425;28;20815;-72
2023/11/15 08:32:59;;;;;;;2.30;0.77;;;11.40;79.90;;;;;;5009154;28;20393;-72
2023/11/15 08:35:26;;;;;;;0.80;0.70;;;11.30;80.20;;;;;;5008786;28;20409;-71
2023/11/15 08:37:52;;;;;;;3.42;1.20;;;11.40;78.40;;;;;;5008644;28;20389;-72
2023/11/15 08:40:22;;;;;;;28.10;7.40;;;11.40;76.90;;;;;;5013262;28;20883;-72
2023/11/15 08:42:54;;;;;;;23.58;6.57;;;11.40;76.30;;;;;;5013264;28;20388;-72
2023/11/15 08:45:19;;;;;;;31.13;7.10;;;11.40;77.30;;;;;;5029567;28;20410;-72
2023/11/15 08:47:45;;;;;;;28.33;6.57;;;11.50;77.90;;;;;;5033052;28;20457;-72
2023/11/15 08:50:11;;;;;;;23.43;6.77;;;11.80;76.40;;;;;;5032166;28;20404;-71
2023/11/15 08:52:39;;;;;;;24.97;5.73;;;11.90;72.30;;;;;;5032384;28;20393;-73
2023/11/15 08:55:06;;;;;;;23.48;5.55;;;11.90;69.00;;;;;;5032582;28;20866;-72
2023/11/15 08:57:32;;;;;;;21.55;6.05;;;11.90;68.60;;;;;;5032539;28;20851;-73
2023/11/15 08:59:57;;;;;;;20.20;5.35;;;11.80;67.60;;;;;;5030604;28;20902;-72
2023/11/15 09:02:23;;;;;;;25.27;6.40;;;11.80;69.10;;;;;;5016128;28;20479;-74
2023/11/15 09:04:52;;;;;;;16.13;5.07;;;11.80;71.00;;;;;;5025133;28;20840;-71
2023/11/15 09:07:19;;;;;;;21.63;5.20;;;11.80;68.30;;;;;;5032679;28;20984;-71
2023/11/15 09:09:46;;;;;;;24.25;5.45;;;11.90;69.20;;;;;;5035977;28;20952;-72
2023/11/15 09:12:13;;;;;;;21.73;5.50;;;11.90;70.30;;;;;;5031714;28;20409;-70
2023/11/15 09:14:39;;;;;;;29.83;5.75;;;12.00;64.80;;;;;;5021887;28;20475;-70
2023/11/15 09:17:12;;;;;;;23.13;5.70;;;12.00;65.40;;;;;;5014097;28;20388;-69
2023/11/15 09:19:40;;;;;;;25.80;5.40;;;12.10;64.90;;;;;;5036922;28;20400;-71
2023/11/15 09:22:06;;;;;;;16.53;5.30;;;12.30;65.00;;;;;;5015126;28;20385;-72
2023/11/15 09:24:33;;;;;;;20.33;5.10;;;12.40;61.40;;;;;;5014484;28;20393;-71
2023/11/15 09:27:00;;;;;;;25.58;5.57;;;12.40;62.30;;;;;;5025138;28;20503;-72
2023/11/15 09:29:27;;;;;;;21.70;5.30;;;12.50;62.80;;;;;;5033953;28;20390;-70
2023/11/15 09:31:54;;;;;;;20.55;5.10;;;12.60;60.40;;;;;;5012633;28;20539;-70
2023/11/15 09:34:20;;;;;;;19.10;4.30;;;12.70;58.00;;;;;;5014033;28;20638;-73
2023/11/15 09:36:47;;;;;;;21.80;4.60;;;12.80;57.40;;;;;;5018514;28;20405;-73
2023/11/15 09:39:16;;;;;;;21.48;4.95;;;12.80;56.10;;;;;;5031962;28;20406;-73
2023/11/15 09:41:49;;;;;;;24.98;5.22;;;12.70;55.80;;;;;;5034415;28;20474;-73
2023/11/15 09:44:18;;;;;;;23.13;5.00;;;12.50;57.00;;;;;;5036957;28;20383;-74
2023/11/15 09:46:45;;;;;;;23.35;5.70;;;12.50;58.50;;;;;;5037837;28;20912;-72
2023/11/15 09:49:14;;;;;;;21.17;4.72;;;12.70;58.60;;;;;;5036229;28;20414;-75
2023/11/15 09:51:40;;;;;;;25.02;4.90;;;12.90;53.80;;;;;;5032790;28;20450;-73
2023/11/15 09:54:06;;;;;;;24.75;5.10;;;13.10;53.70;;;;;;5033685;28;20387;-74
2023/11/15 09:56:35;;;;;;;21.27;4.70;;;13.30;53.10;;;;;;5033330;28;20379;-74
2023/11/15 09:59:01;;;;;;;17.73;4.45;;;13.40;52.10;;;;;;5033079;28;20383;-74
2023/11/15 10:01:27;;;;;;;19.70;4.35;;;13.30;50.40;;;;;;5033135;28;20425;-73
2023/11/15 10:03:53;;;;;;;18.33;3.60;;;13.20;50.50;;;;;;5032857;28;20423;-72
2023/11/15 10:06:18;;;;;;;15.10;3.95;;;13.10;49.40;;;;;;5032651;28;20464;-74
2023/11/15 10:08:52;;;;;;;16.23;3.60;;;13.00;49.70;;;;;;5032659;28;20450;-73
2023/11/15 10:11:18;;;;;;;13.95;4.25;;;13.00;52.20;;;;;;5032622;28;20387;-74
2023/11/15 10:13:44;;;;;;;16.83;4.40;;;12.90;51.50;;;;;;5031223;28;20387;-73
2023/11/15 10:16:30;;;;;;;17.63;4.20;;;12.90;52.30;;;;;;5032949;28;20459;-72
2023/11/15 10:18:56;;;;;;;11.35;4.50;;;12.80;51.00;;;;;;5033071;28;20375;-74
2023/11/15 10:21:22;;;;;;;14.52;4.22;;;12.70;51.40;;;;;;5032860;28;20448;-74
2023/11/15 10:23:52;;;;;;;22.80;4.40;;;12.80;51.90;;;;;;5032610;28;20390;-72
2023/11/15 10:26:17;;;;;;;18.83;3.67;;;13.00;50.00;;;;;;5032767;28;20390;-74
2023/11/15 10:28:46;;;;;;;19.03;4.53;;;13.10;48.30;;;;;;5032228;28;20394;-74
2023/11/15 10:31:14;;;;;;;23.13;4.75;;;13.10;48.10;;;;;;5033245;28;20386;-73
2023/11/15 10:33:44;;;;;;;14.93;3.92;;;13.10;48.60;;;;;;5032515;28;20391;-72
2023/11/15 10:36:19;;;;;;;20.55;4.10;;;13.10;48.70;;;;;;5030778;28;20414;-73
2023/11/15 10:38:50;;;;;;;12.98;3.92;;;13.20;47.60;;;;;;5032037;28;20403;-73
2023/11/15 10:41:17;;;;;;;19.95;4.00;;;13.30;47.10;;;;;;5032725;28;20442;-72
2023/11/15 10:44:07;;;;;;;14.55;4.28;;;13.40;46.70;;;;;;5032590;28;20387;-72
2023/11/15 10:46:33;;;;;;;19.00;4.20;;;13.40;46.80;;;;;;5032554;28;20461;-73
2023/11/15 10:49:01;;;;;;;14.75;3.60;;;13.20;46.30;;;;;;5032465;28;20387;-74
2023/11/15 10:51:38;;;;;;;13.68;3.45;;;13.30;46.20;;;;;;5032814;28;20391;-74
2023/11/15 10:54:06;;;;;;;20.77;4.20;;;13.40;47.10;;;;;;5032234;28;20376;-72
2023/11/15 10:56:33;;;;;;;21.65;4.20;;;13.50;46.10;;;;;;5032006;28;20380;-72
2023/11/15 10:59:01;;;;;;;22.65;4.53;;;13.60;45.40;;;;;;5031811;28;20807;-74
2023/11/15 11:01:31;;;;;;;25.58;5.22;;;13.60;44.80;;;;;;5031785;28;20380;-75
2023/11/15 11:03:58;;;;;;;19.23;5.70;;;13.60;43.10;;;;;;5032260;28;20781;-73
2023/11/15 11:06:34;;;;;;;18.80;5.22;;;13.70;43.90;;;;;;5032088;28;20419;-72
2023/11/15 11:09:21;;;;;;;19.30;4.70;;;13.80;42.60;;;;;;5031502;28;20897;-73
2023/11/15 11:12:05;;;;;;;18.77;4.70;;;13.60;43.30;;;;;;5031798;28;20425;-73
2023/11/15 11:14:31;;;;;;;17.52;4.50;;;13.40;43.40;;;;;;5031641;28;20403;-74
2023/11/15 11:16:58;;;;;;;15.30;4.07;;;13.40;42.30;;;;;;5031677;28;20885;-72
2023/11/15 11:19:27;;;;;;;16.42;5.65;;;13.30;43.70;;;;;;5032215;28;20810;-73
2023/11/15 11:22:08;;;;;;;18.60;5.15;;;13.10;43.00;;;;;;5032083;28;20387;-74
2023/11/15 11:24:48;;;;;;;20.73;5.50;;;13.10;44.30;;;;;;5031378;28;20386;-74
2023/11/15 11:27:14;;;;;;;15.52;4.95;;;13.10;44.30;;;;;;5031381;28;20379;-74
2023/11/15 11:29:54;;;;;;;15.50;4.43;;;13.10;44.60;;;;;;5031390;28;20394;-74
2023/11/15 11:32:21;;;;;;;19.35;5.45;;;13.10;44.50;;;;;;5031524;28;20444;-75
2023/11/15 11:35:01;;;;;;;15.38;5.25;;;13.20;43.90;;;;;;5031750;28;20415;-75
2023/11/15 11:37:47;;;;;;;24.10;5.17;;;13.20;44.50;;;;;;5031381;28;20378;-73
2023/11/15 11:40:17;;;;;;;14.60;4.43;;;13.20;44.40;;;;;;5030974;28;20387;-73
2023/11/15 11:42:43;;;;;;;16.40;4.50;;;13.10;45.00;;;;;;5030311;28;20394;-72
2023/11/15 11:45:11;;;;;;;15.98;4.30;;;13.00;45.90;;;;;;5031415;28;20932;-73
2023/11/15 11:47:46;;;;;;;15.38;5.30;;;12.80;46.10;;;;;;5031497;28;20387;-74
2023/11/15 11:50:25;;;;;;;16.15;4.60;;;12.80;47.00;;;;;;5031105;28;20391;-74
2023/11/15 11:52:59;;;;;;;17.80;4.95;;;12.90;46.40;;;;;;5031379;28;20394;-73
2023/11/15 11:55:28;;;;;;;17.60;5.25;;;13.10;45.60;;;;;;5031802;28;20411;-73
2023/11/15 11:58:01;;;;;;;16.42;4.32;;;13.10;44.70;;;;;;5031543;28;20457;-74
2023/11/15 12:00:26;;;;;;;9.75;3.75;;;13.10;44.90;;;;;;5032032;28;20880;-74
2023/11/15 12:02:53;;;;;;;17.07;4.83;;;13.10;44.20;;;;;;5033011;28;20391;-74
2023/11/15 12:05:25;;;;;;;18.95;3.85;;;12.90;45.00;;;;;;5030501;28;20383;-74
2023/11/15 12:07:53;;;;;;;17.65;4.90;;;12.80;44.70;;;;;;5029966;28;20414;-74
2023/11/15 12:10:19;;;;;;;14.82;3.70;;;12.70;45.30;;;;;;5031195;28;20391;-73
2023/11/15 12:12:57;;;;;;;11.82;4.10;;;12.60;45.00;;;;;;5030655;28;20383;-73
2023/11/15 12:15:24;;;;;;;17.60;4.55;;;12.60;45.50;;;;;;5031052;28;20407;-73
2023/11/15 12:17:51;;;;;;;15.40;4.60;;;12.60;45.30;;;;;;5030703;28;20420;-72
2023/11/15 12:20:27;;;;;;;17.98;4.07;;;12.50;45.90;;;;;;5030878;28;20445;-73
2023/11/15 12:23:08;;;;;;;14.15;3.65;;;12.70;45.10;;;;;;5042433;28;20403;-73
2023/11/15 12:25:47;;;;;;;11.07;4.25;;;13.00;42.80;;;;;;5041069;28;20387;-73
2023/11/15 12:28:14;;;;;;;16.45;3.80;;;13.40;40.70;;;;;;5039449;28;20816;-75
2023/11/15 12:30:42;;;;;;;15.48;3.50;;;13.80;38.80;;;;;;5038483;28;20413;-72
2023/11/15 12:33:09;;;;;;;13.52;3.80;;;13.90;37.80;;;;;;5034785;28;20441;-73
2023/11/15 12:35:36;;;;;;;19.90;3.70;;;13.90;37.00;;;;;;5033934;28;20407;-74
2023/11/15 12:38:05;;;;;;;11.07;3.30;;;13.90;37.90;;;;;;5034563;28;20375;-73
2023/11/15 12:40:36;;;;;;;16.13;3.45;;;14.00;36.60;;;;;;5033777;28;20690;-74
2023/11/15 12:43:21;;;;;;;13.30;3.88;;;14.20;36.80;;;;;;5033847;28;20469;-74